KHUA

Redstone AAF Airport

Redstone Arsnl Huntsville, Alabama, USA
METAR KHUA 161158Z AUTO 31009KT 10SM BKN010 OVC014 09/08 A3011 RMK AO2 SLP199 70002 53012
Observed Flight Rules
Dec-16 @ 11:58 UTC (46 minutes ago) Marginal Visual Flight Rules
Wind Visibility Clouds
310° at 9 knots 10 miles
  • Broken at 1,000' AGL
  • Overcast at 1,400' AGL
Temperatures Readings
Current 9°C / 48°F
Dewpoint 8°C / 46°F
Humidity 94%
Altimeter 30.11" Hg
Pressure 1019.9 hPa
Elevation 209
METAR KHUA 161158Z AUTO 31009KT 10SM BKN010 OVC014 09/08 A3011 RMK AO2 SLP199 70002 53012
Observed Flight Rules
Dec-16 @ 11:58 UTC
(46 minutes ago)
MVFR
Wind Visibility
310° at 9 knots 10 miles
Clouds
  • Broken at 1,000' AGL
  • Overcast at 1,400' AGL
Temperature Dewpoint
9°C / 48°F 8°C / 46°F
Humidity Altimeter Pressure
94% 30.11" Hg 1019.9 hPa